Terminal Aerodrome Forecast
Issued by NWS Quad Cities IA IL

Home | Current Version | Previous Version | Text Only | Print | Product List | Glossary On
Versions: 1 2 3 4 5 6 7 8 9 10 11 12 13 14 15 16 17 18 19 20
685
FTUS43 KDVN 300520
TAFDBQ
TAF
KDBQ 300520Z 3006/3106 30006KT P6SM SCT100
     FM301500 27017G26KT P6SM BKN070
     FM310000 30008KT P6SM BKN100=

USA.gov is the U.S. government's official web portal to all federal, state and local government web resources and services.